Vetal, South Dakota
Current Conditions -  °F | °C
As of 7:52 PM on Friday 19 Dec 2014 (Local Time) from KIEN Reporting Station
Clear Clear  
Wind Chill: -6°   Ceiling: Unl
Heat Index: -6°   Visibility: 10mi
Dew Point: -9°   Wind: 3mph
Humidity: 81%   Direction: 300°WNW
Pressure: 29.96"   Gusts: NA
Location:  43.2013°N, 101.679°W
Report Text: KIEN 200252Z AUTO 30003KT 10SM CLR M06/M09 A2996 RMK AO2 SLP185 T10611089 58002
Loading
Personal Weather Stations






























Interactive Weather Map New forecast layout! Learn more

10-Day Weather Forecast

Advertisements
Track Severe Weather on mobile